NCAR-RAP Real-Time Weather Data

Output produced by METARs form (08 May 2021  01:41 UTC)
found at http://weather.rap.ucar.edu/surface/
 
KAMW 080053Z AUTO 02008KT 10SM CLR 14/M07 A3001 RMK AO2 SLP162 T01441067
KAMW 072353Z AUTO 33006KT 10SM CLR 18/M09 A3001 RMK AO2 SLP161 T01781094 10194 20172 56013
KAMW 072253Z AUTO 33011G19KT 10SM CLR 18/M08 A3002 RMK AO2 WSHFT 2140 SLP165 T01831078
KAMW 072200Z AUTO 35011KT 10SM CLR 19/M08 A3004 RMK AO2 WSHFT 2140 T01891083
KAMW 072153Z AUTO 31011KT 10SM CLR 19/M09 A3004 RMK AO2 SLP171 T01891089
KAMW 072053Z AUTO 31009KT 10SM CLR 19/M08 A3005 RMK AO2 SLP174 T01941083 58017
KAMW 071953Z AUTO 35012G22KT 10SM CLR 19/M07 A3007 RMK AO2 SLP181 T01891067
KAMW 071853Z AUTO 34011G21KT 10SM CLR 18/M07 A3009 RMK AO2 SLP187 T01831072
KAMW 071753Z AUTO 35008G22KT 10SM CLR 17/M06 A3010 RMK AO2 SLP194 T01721056 10178 20094 58005
KAMW 071653Z AUTO 01011G19KT 10SM CLR 17/M05 A3012 RMK AO2 SLP199 T01671050
KAMW 071553Z AUTO 35013KT 10SM CLR 15/M04 A3013 RMK AO2 SLP202 T01501044
KAMW 071453Z AUTO 01017KT 10SM CLR 14/M02 A3012 RMK AO2 SLP199 T01391022 51020
KAMW 071353Z AUTO 01011G19KT 10SM CLR 13/01 A3011 RMK AO2 SLP196 T01280006
KAMW 071253Z AUTO 35011KT 10SM CLR 10/01 A3009 RMK AO2 SLP188 T01000006
KAMW 071153Z AUTO 33011KT 10SM FEW110 09/00 A3006 RMK AO2 SLP177 T00940000 10100 20050 51012
KAMW 071053Z AUTO 28010KT 10SM CLR 08/01 A3004 RMK AO2 WSHFT 0944 SLP170 T00830006